createdAt,value
2022-08-07T00:01:12.609Z,44.02
2022-08-07T00:03:55.041Z,45.13
2022-08-07T00:06:32.977Z,44.63
2022-08-07T00:09:16.930Z,44.67
2022-08-07T00:11:55.252Z,44.43
2022-08-07T00:14:25.462Z,47.59
2022-08-07T00:16:53.116Z,45.98
2022-08-07T00:19:21.591Z,51.24
2022-08-07T00:21:56.246Z,52.44
2022-08-07T00:24:24.636Z,54.76
2022-08-07T00:27:06.348Z,61.38
2022-08-07T00:29:37.215Z,63.27
2022-08-07T00:32:06.816Z,62.81
2022-08-07T00:34:35.628Z,62.97
2022-08-07T00:37:53.851Z,63.74
2022-08-07T00:40:36.388Z,63.62
2022-08-07T00:43:09.875Z,63.16
2022-08-07T00:45:41.267Z,59.80
2022-08-07T00:48:13.852Z,56.53
2022-08-07T00:50:46.525Z,53.15
2022-08-07T00:53:20.157Z,53.61
2022-08-07T00:56:02.206Z,54.14
2022-08-07T00:58:31.010Z,53.46
2022-08-07T01:00:59.955Z,52.46
2022-08-07T01:03:57.062Z,52.27
2022-08-07T01:06:15.735Z,53.40
2022-08-07T01:08:53.600Z,52.96
2022-08-07T01:12:08.934Z,64.72
2022-08-07T01:14:11.087Z,63.73
2022-08-07T01:16:42.966Z,61.57
2022-08-07T01:19:18.483Z,62.63
2022-08-07T01:21:53.307Z,60.62
2022-08-07T01:24:28.532Z,58.80
2022-08-07T01:27:03.196Z,53.68
2022-08-07T01:29:33.741Z,52.79
2022-08-07T01:32:11.912Z,52.97
2022-08-07T01:34:42.770Z,55.31
2022-08-07T01:37:17.478Z,51.46
2022-08-07T01:39:48.511Z,51.25
2022-08-07T01:42:39.772Z,54.38
2022-08-07T01:45:17.823Z,54.45
2022-08-07T01:48:19.745Z,54.42
2022-08-07T01:50:40.381Z,54.62
2022-08-07T01:53:21.556Z,54.38
2022-08-07T01:56:00.959Z,54.93
2022-08-07T01:58:40.850Z,55.50
2022-08-07T02:01:25.587Z,55.10
2022-08-07T02:04:12.115Z,53.88
2022-08-07T02:06:45.916Z,52.55
2022-08-07T02:09:51.713Z,52.44
2022-08-07T02:12:13.878Z,53.26
2022-08-07T02:14:57.071Z,53.37
2022-08-07T02:17:40.827Z,53.22
2022-08-07T02:20:23.425Z,53.50
2022-08-07T02:22:55.832Z,53.01
2022-08-07T02:25:47.219Z,53.27
2022-08-07T02:28:25.454Z,54.24
2022-08-07T02:31:18.975Z,55.15
2022-08-07T02:34:03.446Z,55.65
2022-08-07T02:36:39.239Z,55.91
2022-08-07T02:39:17.271Z,55.88
2022-08-07T02:42:10.042Z,55.67
2022-08-07T02:44:48.954Z,55.84
2022-08-07T02:47:45.185Z,56.42
2022-08-07T02:50:14.440Z,56.47
2022-08-07T02:52:48.870Z,56.26
2022-08-07T02:55:28.615Z,56.83
2022-08-07T02:58:21.632Z,57.26
2022-08-07T03:00:55.388Z,57.33
2022-08-07T03:03:29.467Z,56.73
2022-08-07T03:06:16.487Z,56.19
2022-08-07T03:08:46.430Z,56.47
2022-08-07T03:11:14.918Z,56.76
2022-08-07T03:13:49.938Z,56.63
2022-08-07T03:16:22.977Z,56.82
2022-08-07T03:18:59.186Z,56.66
2022-08-07T03:21:28.071Z,56.52
2022-08-07T03:24:20.859Z,56.54
2022-08-07T03:26:58.374Z,56.73
2022-08-07T03:29:37.751Z,57.13
2022-08-07T03:32:13.711Z,56.43
2022-08-07T03:35:00.870Z,59.01
2022-08-07T03:37:46.455Z,58.26
2022-08-07T03:40:31.144Z,59.19
2022-08-07T03:43:10.081Z,58.14
2022-08-07T03:45:48.635Z,57.86
2022-08-07T03:48:20.734Z,57.53
2022-08-07T03:50:56.107Z,58.35
2022-08-07T03:54:05.551Z,57.60
2022-08-07T03:56:32.731Z,58.35
2022-08-07T03:59:09.151Z,58.06
2022-08-07T04:01:45.501Z,58.76
2022-08-07T04:04:17.578Z,59.04
2022-08-07T04:06:51.016Z,59.11
2022-08-07T04:09:23.078Z,60.07
2022-08-07T04:12:27.317Z,61.39
2022-08-07T04:14:46.308Z,63.23
2022-08-07T04:17:21.852Z,60.71
2022-08-07T04:19:55.634Z,59.67
2022-08-07T04:22:29.163Z,59.45
2022-08-07T04:25:02.313Z,59.24
2022-08-07T04:27:35.717Z,58.52
2022-08-07T04:30:20.942Z,57.33
2022-08-07T04:33:07.595Z,56.69
2022-08-07T04:35:39.086Z,56.71
2022-08-07T04:38:13.350Z,56.10
2022-08-07T04:45:58.147Z,54.23
2022-08-07T04:48:21.664Z,54.50
2022-08-07T04:51:00.739Z,52.50
2022-08-07T04:54:06.422Z,51.08
2022-08-07T04:58:10.695Z,49.75
2022-08-07T05:00:11.564Z,47.98
2022-08-07T05:02:29.534Z,46.90
2022-08-07T05:05:11.403Z,44.73
2022-08-07T05:08:02.715Z,43.87
2022-08-07T05:10:41.627Z,42.70
2022-08-07T05:14:54.376Z,41.50
2022-08-07T05:16:14.411Z,41.54
2022-08-07T05:18:51.168Z,40.08
2022-08-07T05:21:59.212Z,39.39
2022-08-07T05:24:17.953Z,38.17
2022-08-07T05:26:51.070Z,36.82
2022-08-07T05:29:22.459Z,36.39
2022-08-07T05:31:53.035Z,35.78
2022-08-07T05:34:28.206Z,35.22
2022-08-07T05:36:58.640Z,35.29
2022-08-07T05:40:05.988Z,33.57
2022-08-07T05:42:34.404Z,32.55
2022-08-07T05:45:14.650Z,31.62
2022-08-07T05:48:01.218Z,31.64
2022-08-07T05:50:31.006Z,31.34
2022-08-07T05:53:00.235Z,30.45
2022-08-07T05:56:02.234Z,31.72
2022-08-07T05:58:22.079Z,29.85
2022-08-07T06:01:09.211Z,29.76
2022-08-07T06:03:57.298Z,29.54
2022-08-07T06:06:35.064Z,28.20
2022-08-07T06:09:08.635Z,29.41
2022-08-07T06:11:41.962Z,29.10
2022-08-07T06:14:20.852Z,27.59
2022-08-07T06:16:57.316Z,26.83
2022-08-07T06:19:47.937Z,26.61
2022-08-07T06:22:23.962Z,26.29
2022-08-07T06:25:10.154Z,25.65
2022-08-07T06:27:59.597Z,25.38
2022-08-07T06:30:36.045Z,25.35
2022-08-07T06:33:22.749Z,25.40
2022-08-07T06:36:11.956Z,25.00
2022-08-07T06:40:16.506Z,24.16
2022-08-07T06:42:04.267Z,25.63
2022-08-07T06:44:56.718Z,24.39
2022-08-07T06:47:24.755Z,25.02
2022-08-07T06:50:00.112Z,24.58
2022-08-07T06:52:46.426Z,24.51
2022-08-07T06:55:53.584Z,24.75
2022-08-07T06:58:21.570Z,24.05
2022-08-07T07:01:15.388Z,23.73
2022-08-07T07:03:48.261Z,24.22
2022-08-07T07:06:23.980Z,24.49
2022-08-07T07:08:58.231Z,23.99
2022-08-07T07:12:09.066Z,23.94
2022-08-07T07:14:22.492Z,23.55
2022-08-07T07:17:05.322Z,23.69
2022-08-07T07:19:57.837Z,23.02
2022-08-07T07:22:36.908Z,24.01
2022-08-07T07:26:35.471Z,24.06
2022-08-07T07:28:42.249Z,24.39
2022-08-07T07:31:26.959Z,25.09
2022-08-07T07:34:15.726Z,24.40
2022-08-07T07:36:54.051Z,23.89
2022-08-07T07:39:25.977Z,24.45
2022-08-07T07:42:19.957Z,24.15
2022-08-07T07:44:59.165Z,24.19
2022-08-07T07:47:52.081Z,25.25
2022-08-07T07:50:40.553Z,25.27
2022-08-07T07:53:20.578Z,26.15
2022-08-07T07:56:01.044Z,25.25
2022-08-07T07:58:40.339Z,24.65
2022-08-07T08:02:02.263Z,24.79
2022-08-07T08:04:09.798Z,25.53
2022-08-07T08:06:50.943Z,25.37
2022-08-07T08:09:29.678Z,25.05
2022-08-07T08:12:02.157Z,26.29
2022-08-07T08:14:31.681Z,25.85
2022-08-07T08:17:32.462Z,26.86
2022-08-07T08:20:22.423Z,27.84
2022-08-07T08:22:58.227Z,29.37
2022-08-07T08:25:42.344Z,29.35
2022-08-07T08:28:37.697Z,29.94
2022-08-07T08:31:15.894Z,28.93
2022-08-07T08:33:49.764Z,29.86
2022-08-07T08:36:56.277Z,31.00
2022-08-07T08:39:38.923Z,31.10
2022-08-07T08:42:29.875Z,30.85
2022-08-07T08:45:13.901Z,30.73
2022-08-07T08:47:57.361Z,31.07
2022-08-07T08:50:40.054Z,29.75
2022-08-07T08:53:22.229Z,32.96
2022-08-07T08:55:58.854Z,34.91
2022-08-07T08:58:36.248Z,36.16
2022-08-07T09:01:14.706Z,35.91
2022-08-07T09:03:55.928Z,36.20
2022-08-07T09:06:42.610Z,34.98
2022-08-07T09:09:36.534Z,34.40
2022-08-07T09:12:30.998Z,35.39
2022-08-07T09:16:22.881Z,35.75
2022-08-07T09:18:58.630Z,36.36
2022-08-07T09:22:10.367Z,35.22
2022-08-07T09:24:58.949Z,36.49
2022-08-07T09:27:59.627Z,35.44
2022-08-07T09:30:54.743Z,35.03
2022-08-07T09:33:56.896Z,36.43
2022-08-07T09:36:36.950Z,36.12
2022-08-07T09:39:55.207Z,35.71
2022-08-07T09:42:46.936Z,35.75
2022-08-07T09:47:52.478Z,33.98
2022-08-07T09:50:00.495Z,34.15
2022-08-07T09:52:15.331Z,34.51
2022-08-07T09:54:58.984Z,33.52
2022-08-07T09:58:14.214Z,34.61
2022-08-07T10:01:02.771Z,34.75
2022-08-07T10:04:06.115Z,32.71
2022-08-07T10:07:04.855Z,32.92
2022-08-07T10:10:23.956Z,32.92
2022-08-07T10:14:00.978Z,33.96
2022-08-07T10:17:16.622Z,33.72
2022-08-07T10:20:03.674Z,34.40
2022-08-07T10:23:03.658Z,33.82
2022-08-07T10:26:14.138Z,32.75
2022-08-07T10:29:11.554Z,33.42
2022-08-07T10:32:31.574Z,33.86
2022-08-07T10:35:53.623Z,30.44
2022-08-07T10:38:49.959Z,31.02
2022-08-07T10:41:51.501Z,29.39
2022-08-07T10:44:39.725Z,30.77
2022-08-07T10:47:51.582Z,30.94
2022-08-07T10:50:25.663Z,30.64
2022-08-07T10:53:21.705Z,30.74
2022-08-07T10:56:02.184Z,30.15
2022-08-07T10:59:01.440Z,30.71
2022-08-07T11:02:05.457Z,28.39
2022-08-07T11:05:13.782Z,29.20
2022-08-07T11:08:02.739Z,30.11
2022-08-07T11:10:40.900Z,26.37
2022-08-07T11:14:43.878Z,28.17
2022-08-07T11:16:29.718Z,25.15
2022-08-07T11:19:11.319Z,25.38
2022-08-07T11:21:50.101Z,25.40
2022-08-07T11:24:29.081Z,26.67
2022-08-07T11:27:07.433Z,27.23
2022-08-07T11:30:17.695Z,28.62
2022-08-07T11:32:56.793Z,27.74
2022-08-07T11:35:34.698Z,25.83
2022-08-07T11:38:33.262Z,26.92
2022-08-07T11:41:18.313Z,28.44
2022-08-07T11:44:12.253Z,29.06
2022-08-07T11:47:02.625Z,28.43
2022-08-07T11:50:31.545Z,30.66
2022-08-07T11:53:09.019Z,29.09
2022-08-07T11:56:27.636Z,27.57
2022-08-07T12:00:11.676Z,29.67
2022-08-07T12:02:35.980Z,28.41
2022-08-07T12:05:28.570Z,29.84
2022-08-07T12:08:25.924Z,29.99
2022-08-07T12:11:20.132Z,30.34
2022-08-07T12:14:03.581Z,30.05
2022-08-07T12:16:40.791Z,27.34
2022-08-07T12:19:21.256Z,29.34
2022-08-07T12:22:38.690Z,29.90
2022-08-07T12:25:07.861Z,29.78
2022-08-07T12:28:09.794Z,30.47
2022-08-07T12:30:41.272Z,30.07
2022-08-07T12:33:23.219Z,28.32
2022-08-07T12:36:05.687Z,29.65
2022-08-07T12:38:43.026Z,28.58
2022-08-07T12:41:13.067Z,29.01
2022-08-07T12:44:03.888Z,29.82
2022-08-07T12:46:57.686Z,28.84
2022-08-07T12:49:48.485Z,29.13
2022-08-07T12:52:36.193Z,29.55
2022-08-07T12:55:20.334Z,29.75
2022-08-07T12:58:02.018Z,29.46
2022-08-07T13:00:50.329Z,29.00
2022-08-07T13:04:02.150Z,28.15
2022-08-07T13:07:08.980Z,28.97
2022-08-07T13:10:39.484Z,28.42
2022-08-07T13:13:48.473Z,29.48
2022-08-07T13:16:29.607Z,28.50
2022-08-07T13:19:21.981Z,28.13
2022-08-07T13:22:19.855Z,27.94
2022-08-07T13:25:04.269Z,28.48
2022-08-07T13:28:11.272Z,28.37
2022-08-07T13:30:44.189Z,27.73
2022-08-07T13:34:30.354Z,27.87
2022-08-07T13:36:28.035Z,27.73
2022-08-07T13:39:05.059Z,28.73
2022-08-07T13:41:49.415Z,28.47
2022-08-07T13:44:26.029Z,29.01
2022-08-07T13:46:59.649Z,27.26
2022-08-07T13:50:33.937Z,27.59
2022-08-07T13:52:39.682Z,27.64
2022-08-07T13:55:19.273Z,30.12
2022-08-07T13:58:05.978Z,27.70
2022-08-07T14:00:54.196Z,28.20
2022-08-07T14:03:30.025Z,27.99
2022-08-07T14:06:19.699Z,26.70
2022-08-07T14:08:53.462Z,27.36
2022-08-07T14:11:22.935Z,27.27
2022-08-07T14:14:02.842Z,27.55
2022-08-07T14:16:41.888Z,26.81
2022-08-07T14:20:42.100Z,27.89
2022-08-07T14:22:34.666Z,26.61
2022-08-07T14:25:12.522Z,28.02
2022-08-07T14:28:11.358Z,27.59
2022-08-07T14:30:36.564Z,27.66
2022-08-07T14:33:10.039Z,26.71
2022-08-07T14:35:45.807Z,27.35
2022-08-07T14:38:26.509Z,27.28
2022-08-07T14:41:04.891Z,27.12
2022-08-07T14:46:32.073Z,27.69
2022-08-07T14:49:56.018Z,26.63
2022-08-07T14:52:04.403Z,27.80
2022-08-07T14:54:43.203Z,29.14
2022-08-07T15:00:06.089Z,27.65
2022-08-07T15:02:35.189Z,30.01
2022-08-07T15:05:20.626Z,27.98
2022-08-07T15:07:52.697Z,27.55
2022-08-07T15:10:29.933Z,27.72
2022-08-07T15:16:02.507Z,27.02
2022-08-07T15:18:45.270Z,27.72
2022-08-07T15:21:59.548Z,27.37
2022-08-07T15:27:09.371Z,27.78
2022-08-07T15:30:08.743Z,26.41
2022-08-07T15:32:39.125Z,26.87
2022-08-07T15:35:19.593Z,28.28
2022-08-07T15:38:30.441Z,26.86
2022-08-07T15:41:24.187Z,26.65
2022-08-07T15:44:03.501Z,27.32
2022-08-07T15:46:39.430Z,27.20
2022-08-07T15:50:05.326Z,26.21
2022-08-07T15:52:30.397Z,27.84
2022-08-07T15:55:08.698Z,28.70
2022-08-07T15:57:48.565Z,28.35
2022-08-07T16:00:31.296Z,28.46
2022-08-07T16:03:21.520Z,28.24
2022-08-07T16:06:01.320Z,28.71
2022-08-07T16:08:38.935Z,28.14
2022-08-07T16:11:27.373Z,29.21
2022-08-07T16:14:12.530Z,28.61
2022-08-07T16:17:02.360Z,28.86
2022-08-07T16:20:05.498Z,28.64
2022-08-07T16:22:55.286Z,29.04
2022-08-07T16:25:55.058Z,29.38
2022-08-07T16:30:06.346Z,29.55
2022-08-07T16:32:02.015Z,29.99
2022-08-07T16:34:45.260Z,29.10
2022-08-07T16:38:07.487Z,29.37
2022-08-07T16:41:54.649Z,30.06
2022-08-07T16:45:14.674Z,29.91
2022-08-07T16:49:04.272Z,28.80
2022-08-07T16:52:01.893Z,30.04
2022-08-07T16:54:57.947Z,28.95
2022-08-07T16:58:08.176Z,30.21
2022-08-07T17:01:02.098Z,29.13
2022-08-07T17:03:59.770Z,28.99
2022-08-07T17:06:58.015Z,28.41
2022-08-07T17:10:07.196Z,28.62
2022-08-07T17:12:47.543Z,29.15
2022-08-07T17:15:43.713Z,29.44
2022-08-07T17:18:28.128Z,29.74
2022-08-07T17:20:59.279Z,29.28
2022-08-07T17:24:03.243Z,29.20
2022-08-07T17:26:50.175Z,30.51
2022-08-07T17:30:13.969Z,29.34
2022-08-07T17:32:31.255Z,30.05
2022-08-07T17:35:50.782Z,29.72
2022-08-07T17:38:21.063Z,29.99
2022-08-07T17:42:00.849Z,30.13
2022-08-07T17:44:15.668Z,31.38
2022-08-07T17:47:08.559Z,31.04
2022-08-07T17:49:55.970Z,29.90
2022-08-07T17:52:36.740Z,30.61
2022-08-07T17:55:54.825Z,30.32
2022-08-07T17:58:35.851Z,30.47
2022-08-07T18:01:21.850Z,30.37
2022-08-07T18:04:16.762Z,31.68
2022-08-07T18:06:58.082Z,31.07
2022-08-07T18:10:07.087Z,31.93
2022-08-07T18:13:09.543Z,31.01
2022-08-07T18:15:54.602Z,31.07
2022-08-07T18:21:00.754Z,31.96
2022-08-07T18:21:42.131Z,31.80
2022-08-07T18:24:33.116Z,30.63
2022-08-07T18:27:39.046Z,32.14
2022-08-07T18:30:31.066Z,31.93
2022-08-07T18:33:54.947Z,32.98
2022-08-07T18:36:53.856Z,32.33
2022-08-07T18:40:06.344Z,31.85
2022-08-07T18:42:54.075Z,32.55
2022-08-07T18:46:21.872Z,33.36
2022-08-07T18:50:05.503Z,32.42
2022-08-07T18:52:38.826Z,34.12
2022-08-07T18:54:50.866Z,34.22
2022-08-07T18:57:58.521Z,33.87
2022-08-07T19:00:54.915Z,32.98
2022-08-07T19:03:37.962Z,34.19
2022-08-07T19:06:16.745Z,34.60
2022-08-07T19:08:58.602Z,34.61
2022-08-07T19:12:04.994Z,35.53
2022-08-07T19:14:52.244Z,35.41
2022-08-07T19:17:59.101Z,34.50
2022-08-07T19:21:09.589Z,35.73
2022-08-07T19:30:53.559Z,35.76
2022-08-07T19:31:37.429Z,36.61
2022-08-07T19:34:00.466Z,37.36
2022-08-07T19:36:39.095Z,35.72
2022-08-07T19:39:09.511Z,36.14
2022-08-07T19:42:08.036Z,37.08
2022-08-07T19:44:37.789Z,37.58
2022-08-07T19:47:16.206Z,37.48
2022-08-07T19:49:58.431Z,37.90
2022-08-07T19:52:31.705Z,37.29
2022-08-07T19:55:00.094Z,38.20
2022-08-07T19:58:03.260Z,37.41
2022-08-07T20:00:29.917Z,42.89
2022-08-07T20:03:34.646Z,43.61
2022-08-07T20:06:05.061Z,44.21
2022-08-07T20:08:37.607Z,44.83
2022-08-07T20:11:12.263Z,44.50
2022-08-07T20:13:49.825Z,45.08
2022-08-07T20:16:35.073Z,44.41
2022-08-07T20:19:10.540Z,45.39
2022-08-07T20:21:47.411Z,45.05
2022-08-07T20:24:22.544Z,46.07
2022-08-07T20:26:55.878Z,46.65
2022-08-07T20:29:47.873Z,47.08
2022-08-07T20:32:22.963Z,45.56
2022-08-07T20:35:02.674Z,46.31
2022-08-07T20:37:55.748Z,44.88
2022-08-07T20:40:32.338Z,44.50
2022-08-07T20:43:14.816Z,44.92
2022-08-07T20:46:25.793Z,45.94
2022-08-07T20:49:55.130Z,44.89
2022-08-07T20:51:35.831Z,44.11
2022-08-07T20:54:07.196Z,44.32
2022-08-07T20:56:41.567Z,50.26
2022-08-07T21:00:04.484Z,49.91
2022-08-07T21:02:27.671Z,48.28
2022-08-07T21:04:55.587Z,50.39
2022-08-07T21:07:28.196Z,49.11
2022-08-07T21:09:59.032Z,48.29
2022-08-07T21:12:31.632Z,51.09
2022-08-07T21:15:05.243Z,55.53
2022-08-07T21:18:04.070Z,51.70
2022-08-07T21:20:30.363Z,51.86
2022-08-07T21:23:15.412Z,54.56
2022-08-07T21:26:06.550Z,56.73
2022-08-07T21:28:48.941Z,57.78
2022-08-07T21:31:49.877Z,59.16
2022-08-07T21:34:31.862Z,60.41
2022-08-07T21:37:18.386Z,61.56
2022-08-07T21:39:56.534Z,62.17
2022-08-07T21:42:46.708Z,63.29
2022-08-07T21:46:07.655Z,62.32
2022-08-07T21:48:28.818Z,61.26
2022-08-07T21:51:19.283Z,61.57
2022-08-07T21:53:53.082Z,61.13
2022-08-07T21:56:47.098Z,62.58
2022-08-07T22:00:02.908Z,61.74
2022-08-07T22:02:34.276Z,61.60
2022-08-07T22:05:07.169Z,61.90
2022-08-07T22:07:58.342Z,64.54
2022-08-07T22:10:32.843Z,64.14
2022-08-07T22:13:09.350Z,65.56
2022-08-07T22:16:42.409Z,63.00
2022-08-07T22:18:43.531Z,61.75
2022-08-07T22:21:19.337Z,60.43
2022-08-07T22:23:54.969Z,62.35
2022-08-07T22:26:29.001Z,61.90
2022-08-07T22:29:13.760Z,62.80
2022-08-07T22:31:59.969Z,63.08
2022-08-07T22:34:53.050Z,62.78
2022-08-07T22:38:04.189Z,63.40
2022-08-07T22:40:32.986Z,64.02
2022-08-07T22:43:09.414Z,65.40
2022-08-07T22:46:46.823Z,63.67
2022-08-07T22:49:51.847Z,64.86
2022-08-07T22:53:03.461Z,64.75
2022-08-07T22:55:42.697Z,64.88
2022-08-07T22:58:37.753Z,63.89
2022-08-07T23:01:50.223Z,60.16
2022-08-07T23:04:56.916Z,58.48
2022-08-07T23:07:47.036Z,56.26
2022-08-07T23:10:41.961Z,54.59
2022-08-07T23:14:10.541Z,55.33
2022-08-07T23:17:03.059Z,55.60
2022-08-07T23:19:51.625Z,55.37
2022-08-07T23:22:39.206Z,51.98
2022-08-07T23:25:29.711Z,52.82
2022-08-07T23:28:29.105Z,51.88
2022-08-07T23:31:18.573Z,51.20
2022-08-07T23:34:43.923Z,51.25
2022-08-07T23:38:01.127Z,52.53
2022-08-07T23:40:49.199Z,52.61
2022-08-07T23:44:00.738Z,50.81
2022-08-07T23:46:56.289Z,55.78
2022-08-07T23:50:02.503Z,54.99
2022-08-07T23:52:58.253Z,55.65
2022-08-07T23:55:52.987Z,55.80
2022-08-07T23:58:37.511Z,55.60
